createdAt,value
2018-04-11T00:01:13.597Z,77.55
2018-04-11T00:03:41.679Z,77.35
2018-04-11T00:06:10.395Z,77.79
2018-04-11T00:08:39.380Z,77.64
2018-04-11T00:11:07.466Z,77.82
2018-04-11T00:13:35.571Z,77.66
2018-04-11T00:16:03.685Z,78.30
2018-04-11T00:18:32.179Z,78.43
2018-04-11T00:21:00.310Z,77.89
2018-04-11T00:23:28.431Z,78.02
2018-04-11T00:25:56.511Z,77.29
2018-04-11T00:28:24.598Z,77.27
2018-04-11T00:30:52.717Z,77.57
2018-04-11T00:33:20.845Z,77.54
2018-04-11T00:35:48.915Z,78.58
2018-04-11T00:38:17.130Z,78.63
2018-04-11T00:53:45.257Z,78.77
2018-04-11T00:56:13.356Z,78.53
2018-04-11T00:58:41.447Z,78.63
2018-04-11T01:01:09.575Z,78.45
2018-04-11T01:03:37.783Z,78.88
2018-04-11T01:06:05.867Z,79.16
2018-04-11T01:08:33.960Z,79.41
2018-04-11T01:11:02.088Z,79.29
2018-04-11T01:13:30.606Z,79.27
2018-04-11T01:15:59.555Z,79.07
2018-04-11T01:18:27.651Z,78.83
2018-04-11T01:20:55.769Z,78.90
2018-04-11T01:23:24.075Z,78.91
2018-04-11T01:25:52.231Z,79.20
2018-04-11T01:28:20.331Z,79.46
2018-04-11T01:30:48.424Z,79.72
2018-04-11T01:33:16.536Z,79.61
2018-04-11T01:35:44.627Z,79.68
2018-04-11T01:38:12.780Z,79.45
2018-04-11T01:40:40.893Z,78.69
2018-04-11T01:43:08.990Z,78.81
2018-04-11T01:45:37.087Z,79.26
2018-04-11T01:48:05.399Z,79.67
2018-04-11T01:50:33.483Z,79.48
2018-04-11T01:53:01.579Z,79.50
2018-04-11T01:55:29.676Z,78.99
2018-04-11T01:57:57.777Z,78.60
2018-04-11T02:00:26.490Z,78.59
2018-04-11T02:02:55.057Z,79.12
2018-04-11T02:05:28.181Z,79.44
2018-04-11T02:07:56.287Z,79.52
2018-04-11T02:10:24.379Z,80.15
2018-04-11T02:12:52.531Z,80.29
2018-04-11T02:15:20.623Z,80.68
2018-04-11T02:17:48.788Z,80.75
2018-04-11T02:20:17.697Z,80.61
2018-04-11T02:22:45.788Z,80.65
2018-04-11T02:25:13.916Z,80.70
2018-04-11T02:27:42.028Z,80.73
2018-04-11T02:30:10.447Z,80.63
2018-04-11T02:32:38.845Z,80.45
2018-04-11T02:35:06.953Z,80.45
2018-04-11T02:37:35.095Z,80.29
2018-04-11T02:40:04.163Z,80.39
2018-04-11T02:42:32.279Z,80.70
2018-04-11T02:45:00.368Z,80.42
2018-04-11T02:47:29.333Z,80.29
2018-04-11T02:49:57.446Z,80.34
2018-04-11T02:52:25.529Z,80.06
2018-04-11T02:54:54.085Z,79.93
2018-04-11T02:57:22.187Z,79.81
2018-04-11T02:59:51.086Z,79.71
2018-04-11T03:02:19.768Z,80.20
2018-04-11T03:04:47.918Z,80.25
2018-04-11T03:07:17.565Z,80.50
2018-04-11T03:09:45.742Z,80.60
2018-04-11T03:12:13.820Z,80.65
2018-04-11T03:14:42.704Z,80.62
2018-04-11T03:17:10.796Z,80.19
2018-04-11T03:19:39.748Z,80.06
2018-04-11T03:22:08.246Z,80.12
2018-04-11T03:24:36.347Z,79.95
2018-04-11T03:27:04.459Z,80.18
2018-04-11T03:29:32.547Z,80.27
2018-04-11T03:32:00.643Z,80.30
2018-04-11T03:34:29.907Z,80.35
2018-04-11T03:36:58.011Z,80.51
2018-04-11T03:39:26.439Z,80.47
2018-04-11T03:41:54.548Z,80.38
2018-04-11T03:44:22.650Z,80.41
2018-04-11T03:46:50.751Z,80.23
2018-04-11T03:49:18.853Z,80.57
2018-04-11T03:51:46.938Z,79.83
2018-04-11T03:54:15.027Z,80.26
2018-04-11T03:56:43.132Z,80.91
2018-04-11T03:59:11.220Z,81.00
2018-04-11T04:01:39.310Z,81.08
2018-04-11T04:04:07.413Z,81.01
2018-04-11T04:06:35.856Z,81.07
2018-04-11T04:09:03.943Z,81.10
2018-04-11T04:11:32.051Z,81.28
2018-04-11T04:14:11.847Z,81.41
2018-04-11T04:16:51.863Z,81.17
2018-04-11T04:19:31.672Z,80.72
2018-04-11T04:21:59.765Z,80.42
2018-04-11T04:24:27.857Z,80.06
2018-04-11T04:26:55.967Z,79.65
2018-04-11T04:29:24.075Z,79.57
2018-04-11T04:31:52.173Z,79.41
2018-04-11T04:34:20.300Z,79.65
2018-04-11T04:36:48.982Z,79.72
2018-04-11T04:39:17.879Z,79.88
2018-04-11T04:41:46.221Z,79.80
2018-04-11T04:44:14.596Z,79.87
2018-04-11T04:46:43.619Z,79.91
2018-04-11T04:49:11.714Z,80.18
2018-04-11T04:51:39.817Z,80.34
2018-04-11T04:54:08.650Z,80.30
2018-04-11T04:56:36.738Z,80.04
2018-04-11T04:59:04.823Z,79.86
2018-04-11T05:01:32.994Z,79.58
2018-04-11T05:04:01.330Z,79.96
2018-04-11T05:06:29.408Z,79.91
2018-04-11T05:08:57.497Z,79.71
2018-04-11T05:11:25.594Z,79.84
2018-04-11T05:13:53.690Z,79.12
2018-04-11T05:16:21.798Z,78.66
2018-04-11T05:18:50.796Z,79.31
2018-04-11T05:21:18.907Z,78.85
2018-04-11T05:23:47.027Z,78.86
2018-04-11T05:26:15.111Z,77.93
2018-04-11T05:28:44.162Z,78.11
2018-04-11T05:31:12.929Z,78.30
2018-04-11T05:33:41.020Z,78.03
2018-04-11T05:36:09.192Z,77.98
2018-04-11T05:38:37.309Z,78.36
2018-04-11T05:41:10.347Z,78.61
2018-04-11T05:43:38.464Z,78.64
2018-04-11T05:46:07.483Z,78.83
2018-04-11T05:48:35.599Z,79.02
2018-04-11T05:51:03.847Z,79.64
2018-04-11T05:53:31.927Z,79.95
2018-04-11T05:56:04.612Z,79.69
2018-04-11T05:58:33.423Z,80.39
2018-04-11T06:01:01.550Z,80.35
2018-04-11T06:03:29.645Z,79.52
2018-04-11T06:05:57.811Z,79.02
2018-04-11T06:08:25.918Z,79.23
2018-04-11T06:10:54.016Z,79.48
2018-04-11T06:13:22.224Z,79.95
2018-04-11T06:15:50.314Z,80.15
2018-04-11T06:18:18.417Z,80.83
2018-04-11T06:20:46.503Z,81.00
2018-04-11T06:23:15.352Z,81.40
2018-04-11T06:25:43.450Z,81.50
2018-04-11T06:28:12.402Z,81.71
2018-04-11T06:30:40.451Z,81.16
2018-04-11T06:33:08.814Z,81.07
2018-04-11T06:35:37.163Z,81.13
2018-04-11T06:38:05.258Z,81.15
2018-04-11T06:40:33.351Z,80.71
2018-04-11T06:43:02.448Z,80.13
2018-04-11T06:45:30.538Z,79.82
2018-04-11T06:47:58.690Z,79.44
2018-04-11T06:50:26.763Z,79.99
2018-04-11T06:52:54.887Z,80.22
2018-04-11T06:55:23.807Z,79.64
2018-04-11T06:57:52.504Z,79.62
2018-04-11T07:00:20.619Z,79.81
2018-04-11T07:02:48.715Z,80.25
2018-04-11T07:05:16.801Z,79.48
2018-04-11T07:07:44.928Z,78.75
2018-04-11T07:10:13.743Z,78.82
2018-04-11T07:12:41.836Z,78.36
2018-04-11T07:15:09.942Z,78.06
2018-04-11T07:17:38.697Z,77.57
2018-04-11T07:20:06.823Z,77.66
2018-04-11T07:22:34.923Z,77.20
2018-04-11T07:25:03.013Z,77.85
2018-04-11T07:27:31.840Z,77.75
2018-04-11T07:29:59.935Z,77.61
2018-04-11T07:32:28.819Z,78.20
2018-04-11T07:34:56.906Z,77.55
2018-04-11T07:37:25.021Z,77.64
2018-04-11T07:39:53.127Z,77.12
2018-04-11T07:42:21.242Z,76.00
2018-04-11T07:44:49.362Z,75.85
2018-04-11T07:47:17.907Z,76.36
2018-04-11T07:49:46.001Z,76.44
2018-04-11T07:52:14.123Z,77.03
2018-04-11T07:54:42.218Z,77.59
2018-04-11T07:57:10.316Z,78.27
2018-04-11T07:59:38.443Z,78.19
2018-04-11T08:02:06.555Z,78.25
2018-04-11T08:04:34.703Z,77.92
2018-04-11T08:07:03.448Z,77.67
2018-04-11T08:09:31.542Z,77.71
2018-04-11T08:11:59.641Z,77.92
2018-04-11T08:14:27.760Z,78.27
2018-04-11T08:16:56.171Z,78.38
2018-04-11T08:32:24.622Z,78.20
2018-04-11T08:34:53.436Z,78.28
2018-04-11T08:37:21.854Z,78.24
2018-04-11T08:39:49.963Z,77.58
2018-04-11T08:42:18.778Z,76.92
2018-04-11T08:44:48.074Z,76.24
2018-04-11T08:47:16.531Z,76.66
2018-04-11T08:49:44.635Z,75.25
2018-04-11T08:52:12.777Z,75.27
2018-04-11T08:54:41.208Z,74.72
2018-04-11T08:57:09.323Z,74.26
2018-04-11T08:59:37.436Z,74.00
2018-04-11T09:02:05.583Z,73.74
2018-04-11T09:04:33.756Z,73.13
2018-04-11T09:07:01.884Z,71.81
2018-04-11T09:09:29.974Z,72.61
2018-04-11T09:11:58.357Z,72.66
2018-04-11T09:14:26.477Z,71.24
2018-04-11T09:16:54.604Z,71.57
2018-04-11T09:19:22.688Z,70.93
2018-04-11T09:21:51.607Z,70.61
2018-04-11T09:24:20.046Z,70.97
2018-04-11T09:26:48.566Z,72.20
2018-04-11T09:29:16.816Z,72.58
2018-04-11T09:31:44.900Z,72.33
2018-04-11T09:34:13.262Z,72.20
2018-04-11T09:36:41.343Z,73.21
2018-04-11T09:39:09.434Z,73.28
2018-04-11T09:41:37.532Z,73.57
2018-04-11T09:44:05.646Z,73.84
2018-04-11T09:46:34.465Z,73.53
2018-04-11T09:49:02.566Z,73.56
2018-04-11T09:51:30.778Z,73.62
2018-04-11T09:53:58.861Z,74.30
2018-04-11T09:56:27.967Z,74.28
2018-04-11T09:58:56.585Z,74.27
2018-04-11T10:01:24.675Z,74.81
2018-04-11T10:03:52.807Z,75.46
2018-04-11T10:06:20.903Z,75.72
2018-04-11T10:08:49.858Z,75.32
2018-04-11T10:11:17.938Z,75.38
2018-04-11T10:13:47.870Z,75.26
2018-04-11T10:16:16.273Z,75.75
2018-04-11T10:18:45.017Z,75.99
2018-04-11T10:21:13.115Z,75.85
2018-04-11T10:23:41.214Z,76.11
2018-04-11T10:26:10.298Z,75.35
2018-04-11T10:28:38.409Z,74.75
2018-04-11T10:31:06.507Z,74.67
2018-04-11T10:33:35.248Z,74.59
2018-04-11T10:36:03.363Z,75.10
2018-04-11T10:38:31.511Z,74.88
2018-04-11T10:40:59.603Z,74.55
2018-04-11T10:43:27.720Z,74.97
2018-04-11T10:45:55.818Z,74.33
2018-04-11T10:48:23.915Z,74.17
2018-04-11T10:50:52.674Z,74.64
2018-04-11T10:53:21.541Z,74.43
2018-04-11T10:55:50.521Z,74.68
2018-04-11T10:58:18.649Z,74.89
2018-04-11T11:00:51.747Z,74.75
2018-04-11T11:03:19.848Z,74.76
2018-04-11T11:05:48.851Z,75.07
2018-04-11T11:08:17.732Z,74.82
2018-04-11T11:10:45.862Z,74.46
2018-04-11T11:13:13.953Z,74.64
2018-04-11T11:15:42.070Z,74.28
2018-04-11T11:18:10.180Z,74.21
2018-04-11T11:20:38.319Z,74.44
2018-04-11T11:23:06.405Z,74.18
2018-04-11T11:25:34.499Z,74.65
2018-04-11T11:28:02.596Z,74.55
2018-04-11T11:30:30.727Z,75.17
2018-04-11T11:32:59.592Z,74.87
2018-04-11T11:35:27.734Z,74.71
2018-04-11T11:37:55.847Z,74.58
2018-04-11T11:40:23.945Z,74.74
2018-04-11T11:42:52.040Z,74.36
2018-04-11T11:45:20.159Z,74.25
2018-04-11T11:47:48.621Z,74.12
2018-04-11T11:50:16.690Z,74.01
2018-04-11T11:52:44.808Z,73.91
2018-04-11T11:55:12.896Z,73.73
2018-04-11T11:57:40.995Z,73.96
2018-04-11T12:00:09.879Z,74.02
2018-04-11T12:02:37.975Z,73.87
2018-04-11T12:05:06.282Z,74.12
2018-04-11T12:07:34.359Z,73.65
2018-04-11T12:10:02.485Z,74.08
2018-04-11T12:12:30.584Z,73.66
2018-04-11T12:14:58.739Z,73.96
2018-04-11T12:17:26.823Z,74.00
2018-04-11T12:19:54.932Z,73.84
2018-04-11T12:22:23.058Z,74.09
2018-04-11T12:24:51.771Z,74.45
2018-04-11T12:27:20.155Z,74.12
2018-04-11T12:29:48.265Z,74.27
2018-04-11T12:32:16.356Z,74.09
2018-04-11T12:34:45.215Z,73.98
2018-04-11T12:37:13.296Z,73.55
2018-04-11T12:39:41.383Z,73.56
2018-04-11T12:42:09.543Z,73.97
2018-04-11T12:44:37.652Z,73.25
2018-04-11T12:47:05.743Z,74.02
2018-04-11T12:49:35.097Z,74.28
2018-04-11T12:52:03.195Z,74.05
2018-04-11T12:54:31.743Z,74.15
2018-04-11T12:57:00.072Z,74.02
2018-04-11T12:59:28.167Z,73.74
2018-04-11T13:01:56.271Z,74.04
2018-04-11T13:04:25.707Z,73.55
2018-04-11T13:06:53.831Z,73.33
2018-04-11T13:09:22.539Z,73.79
2018-04-11T13:21:35.644Z,72.96
2018-04-11T13:24:03.780Z,72.43
2018-04-11T13:26:31.928Z,72.45
2018-04-11T13:29:00.023Z,72.10
2018-04-11T13:31:28.477Z,72.13
2018-04-11T13:33:57.385Z,71.95
2018-04-11T13:36:25.731Z,71.45
2018-04-11T13:38:54.659Z,71.56
2018-04-11T13:41:22.752Z,71.46
2018-04-11T13:43:51.762Z,71.07
2018-04-11T13:46:20.623Z,70.33
2018-04-11T13:48:53.650Z,70.33
2018-04-11T13:51:21.759Z,70.82
2018-04-11T13:53:50.195Z,70.12
2018-04-11T13:56:18.659Z,70.29
2018-04-11T13:58:46.771Z,70.56
2018-04-11T14:01:14.895Z,70.39
2018-04-11T14:03:42.984Z,69.86
2018-04-11T14:06:11.110Z,69.82
2018-04-11T14:08:39.728Z,70.45
2018-04-11T14:11:07.811Z,70.20
2018-04-11T14:13:37.054Z,70.28
2018-04-11T14:16:05.167Z,70.23
2018-04-11T14:18:33.299Z,70.49
2018-04-11T14:21:01.368Z,70.13
2018-04-11T14:23:29.540Z,70.26
2018-04-11T14:25:57.603Z,70.55
2018-04-11T14:28:26.643Z,70.91
2018-04-11T14:30:54.791Z,70.15
2018-04-11T14:33:22.887Z,70.21
2018-04-11T14:45:36.009Z,70.84
2018-04-11T14:48:04.617Z,70.85
2018-04-11T14:50:32.729Z,70.30
2018-04-11T14:53:00.839Z,70.66
2018-04-11T14:55:29.669Z,70.38
2018-04-11T14:57:57.764Z,70.12
2018-04-11T15:00:25.891Z,69.99
2018-04-11T15:02:58.911Z,69.92
2018-04-11T15:05:27.100Z,69.75
2018-04-11T15:07:55.203Z,69.53
2018-04-11T15:10:23.303Z,69.51
2018-04-11T15:12:52.139Z,69.82
2018-04-11T15:15:20.236Z,69.48
2018-04-11T15:17:49.123Z,68.36
2018-04-11T15:20:17.238Z,68.39
2018-04-11T15:22:45.335Z,67.45
2018-04-11T15:25:13.455Z,67.74
2018-04-11T15:27:41.594Z,67.90
2018-04-11T15:30:09.655Z,67.46
2018-04-11T15:32:37.775Z,67.49
2018-04-11T15:35:05.863Z,67.36
2018-04-11T15:37:33.943Z,67.48
2018-04-11T15:40:02.060Z,67.24
2018-04-11T15:55:30.202Z,66.80
2018-04-11T15:57:58.292Z,66.57
2018-04-11T16:00:26.388Z,66.53
2018-04-11T16:02:54.865Z,66.86
2018-04-11T16:05:22.949Z,66.71
2018-04-11T16:07:51.935Z,66.53
2018-04-11T16:10:20.032Z,65.83
2018-04-11T16:12:48.176Z,65.85
2018-04-11T16:15:16.293Z,66.41
2018-04-11T16:17:44.390Z,66.42
2018-04-11T16:20:12.492Z,65.99
2018-04-11T16:22:40.667Z,66.14
2018-04-11T16:25:08.770Z,65.27
2018-04-11T16:27:36.851Z,65.05
2018-04-11T16:30:05.236Z,65.56
2018-04-11T16:32:33.363Z,66.13
2018-04-11T16:35:02.425Z,65.93
2018-04-11T16:37:30.775Z,65.51
2018-04-11T16:39:58.900Z,65.43
2018-04-11T16:42:28.079Z,65.86
2018-04-11T16:44:56.173Z,65.84
2018-04-11T16:47:24.295Z,66.00
2018-04-11T16:49:52.381Z,65.86
2018-04-11T16:52:20.497Z,65.75
2018-04-11T16:54:48.576Z,65.70
2018-04-11T16:57:17.164Z,66.10
2018-04-11T16:59:45.292Z,65.94
2018-04-11T17:02:13.434Z,65.75
2018-04-11T17:04:41.589Z,66.02
2018-04-11T17:07:09.704Z,65.64
2018-04-11T17:09:37.808Z,66.00
2018-04-11T17:12:05.903Z,65.86
2018-04-11T17:14:34.023Z,65.73
2018-04-11T17:17:02.155Z,66.36
2018-04-11T17:19:30.218Z,65.48
2018-04-11T17:22:10.017Z,66.36
2018-04-11T17:24:49.937Z,66.77
2018-04-11T17:27:29.821Z,66.05
2018-04-11T17:30:09.759Z,66.09
2018-04-11T17:32:38.651Z,66.44
2018-04-11T17:35:07.771Z,67.39
2018-04-11T17:37:35.940Z,66.74
2018-04-11T17:40:04.744Z,67.30
2018-04-11T17:42:32.844Z,67.89
2018-04-11T17:45:00.951Z,67.57
2018-04-11T17:47:29.078Z,67.71
2018-04-11T17:49:57.167Z,68.10
2018-04-11T17:52:25.266Z,68.44
2018-04-11T17:54:53.367Z,68.69
2018-04-11T18:07:06.463Z,70.62
2018-04-11T18:09:34.564Z,70.91
2018-04-11T18:12:02.671Z,70.77
2018-04-11T18:14:30.770Z,71.25
2018-04-11T18:16:59.504Z,71.02
2018-04-11T18:19:28.536Z,71.44
2018-04-11T18:21:56.664Z,70.81
2018-04-11T18:24:24.760Z,71.08
2018-04-11T18:26:53.616Z,70.83
2018-04-11T18:29:21.729Z,70.57
2018-04-11T18:31:49.821Z,70.73
2018-04-11T18:34:19.192Z,71.19
2018-04-11T18:36:47.283Z,70.92
2018-04-11T18:39:16.048Z,70.88
2018-04-11T18:41:44.159Z,70.77
2018-04-11T18:44:12.540Z,70.29
2018-04-11T18:46:41.559Z,70.77
2018-04-11T18:49:09.671Z,70.93
2018-04-11T18:51:37.759Z,71.09
2018-04-11T18:54:05.879Z,70.79
2018-04-11T18:56:33.979Z,70.64
2018-04-11T18:59:02.067Z,71.29
2018-04-11T19:01:30.664Z,71.57
2018-04-11T19:04:02.447Z,71.15
2018-04-11T19:06:31.476Z,70.86
2018-04-11T19:21:59.636Z,72.29
2018-04-11T19:24:27.846Z,72.32
2018-04-11T19:26:55.936Z,72.78
2018-04-11T19:29:25.314Z,72.64
2018-04-11T19:31:54.737Z,72.81
2018-04-11T19:34:23.845Z,72.82
2018-04-11T19:36:56.879Z,73.33
2018-04-11T19:39:25.301Z,72.99
2018-04-11T19:41:53.443Z,72.51
2018-04-11T19:44:21.601Z,72.51
2018-04-11T19:46:50.003Z,72.77
2018-04-11T19:49:18.201Z,72.59
2018-04-11T19:51:46.321Z,72.80
2018-04-11T19:54:15.199Z,72.70
2018-04-11T19:56:43.660Z,73.16
2018-04-11T19:59:12.632Z,73.13
2018-04-11T20:01:40.738Z,72.55
2018-04-11T20:04:08.848Z,73.02
2018-04-11T20:06:36.958Z,72.80
2018-04-11T20:22:05.075Z,73.30
2018-04-11T20:24:33.436Z,73.86
2018-04-11T20:27:01.533Z,73.12
2018-04-11T20:29:30.448Z,73.54
2018-04-11T20:31:58.705Z,73.11
2018-04-11T20:34:27.801Z,73.29
2018-04-11T20:36:55.910Z,73.00
2018-04-11T20:39:24.331Z,73.13
2018-04-11T20:41:52.429Z,73.65
2018-04-11T20:44:21.429Z,73.38
2018-04-11T20:46:49.603Z,73.67
2018-04-11T20:49:18.735Z,73.56
2018-04-11T20:51:47.334Z,73.36
2018-04-11T20:54:15.438Z,73.91
2018-04-11T20:56:43.579Z,73.51
2018-04-11T20:59:11.658Z,73.92
2018-04-11T21:01:40.098Z,73.94
2018-04-11T21:04:08.292Z,74.31
2018-04-11T21:06:36.752Z,74.33
2018-04-11T21:09:06.526Z,74.69
2018-04-11T21:11:35.292Z,75.17
2018-04-11T21:14:04.092Z,76.00
2018-04-11T21:16:32.622Z,76.46
2018-04-11T21:19:00.726Z,76.65
2018-04-11T21:21:28.827Z,76.85
2018-04-11T21:23:56.921Z,77.01
2018-04-11T21:26:25.056Z,77.18
2018-04-11T21:28:53.165Z,76.98
2018-04-11T21:31:21.818Z,77.38
2018-04-11T21:33:49.942Z,77.52
2018-04-11T21:36:18.972Z,77.66
2018-04-11T21:38:47.712Z,77.38
2018-04-11T21:41:16.203Z,77.49
2018-04-11T21:43:44.268Z,77.85
2018-04-11T21:46:12.698Z,77.70
2018-04-11T21:48:40.773Z,77.75
2018-04-11T21:51:08.895Z,77.89
2018-04-11T21:53:37.829Z,77.68
2018-04-11T21:56:06.219Z,77.88
2018-04-11T21:58:34.328Z,77.67
2018-04-11T22:01:02.435Z,77.86
2018-04-11T22:03:31.442Z,78.16
2018-04-11T22:05:59.525Z,78.04
2018-04-11T22:08:28.380Z,78.00
2018-04-11T22:10:57.395Z,78.04
2018-04-11T22:13:25.499Z,77.92
2018-04-11T22:15:58.574Z,78.14
2018-04-11T22:18:27.163Z,78.21
2018-04-11T22:20:55.259Z,78.27
2018-04-11T22:23:23.369Z,78.38
2018-04-11T22:28:28.593Z,78.08
2018-04-11T22:30:56.719Z,78.03
2018-04-11T22:33:24.806Z,78.35
2018-04-11T22:35:52.934Z,78.33
2018-04-11T22:51:22.049Z,78.87
2018-04-11T22:53:50.167Z,78.54
2018-04-11T22:56:18.277Z,78.49
2018-04-11T22:58:46.391Z,78.44
2018-04-11T23:01:14.486Z,78.42
2018-04-11T23:03:42.655Z,78.36
2018-04-11T23:06:11.303Z,78.51
2018-04-11T23:08:40.295Z,78.67
2018-04-11T23:11:09.298Z,78.30
2018-04-11T23:13:37.527Z,78.35
2018-04-11T23:16:05.624Z,78.31
2018-04-11T23:18:33.843Z,78.28
2018-04-11T23:21:01.941Z,78.34
2018-04-11T23:23:30.031Z,78.30
2018-04-11T23:25:58.144Z,78.26
2018-04-11T23:28:27.104Z,78.35
2018-04-11T23:30:55.532Z,78.19
2018-04-11T23:33:23.657Z,78.09
2018-04-11T23:35:51.976Z,77.92
2018-04-11T23:38:21.136Z,77.99
2018-04-11T23:40:49.312Z,78.74
2018-04-11T23:43:17.411Z,79.09
2018-04-11T23:45:45.521Z,79.43
2018-04-11T23:48:14.651Z,79.45
2018-04-11T23:50:42.748Z,79.38
2018-04-11T23:53:11.970Z,79.08
2018-04-11T23:55:40.046Z,79.11
2018-04-11T23:58:08.914Z,78.82
